BIVO/VPN METAR and TAF weather

Enter ICAO airport designator
Station Type Date Time Source
BIVO METAR 2018/11/07 09:19 UTC NOAA

BIVO 070919Z 00000KT 9999 4999SW VCFG SCT002 BKN005 OVC010 03/02 Q0992


Station Type Date Time Source
BIVO Decoded METAR 2018/11/07 09:19 UTC NOAA

Skjaldthingsstadir, Iceland (BIVO) 65-42N 014-49W 48M
Nov 07, 2018 - 04:19 AM EST / 2018.11.07 0919 UTC
Wind: Calm:0
Visibility: greater than 7 mile(s):0
Sky conditions: overcast
Weather: fog in the vicinity
Temperature: 37 F (3 C)
Dew Point: 35 F (2 C)
Relative Humidity: 93%
Pressure (altimeter): 29.29 in. Hg (0992 hPa)
ob: BIVO 070919Z 00000KT 9999 4999SW VCFG SCT002 BKN005 OVC010 03/02 Q0992
cycle: 9

Station Type Date Time Source
BIVO TAF UTC NOAA

Error!


Example: see airport list